Hegina — 3ETX2 — position and weather

sailwx.info

Track history (hours):
 
Tides and Currents Weather Stations Pressure Air Temp Water Temp Dewpoint Dewpoint Depression Visibility Wind Speed Wind Dir Waves Ship Positions

Hegina

Last reported at 2015-Mar-04 03:24 UTC. Time now 2015-Mar-04 18:53 UTC.
Position N 58°48' E 005°09'.

Length 138 m; draft 6.3 m.

Type: Cargo ship. MMSI: 372427000.

Date/timePositionNaut miles runAvg speedWind from/ knotsBaromVisibWave heightAir tempDewpointWater temp
2015-Mar-04 03:24N 58°48' E 005°09'3 3.3
2015-Mar-04 02:25N 58°51' E 005°10'1112.4
2015-Mar-04 01:31N 59°02' E 005°13'4 4.3
2015-Mar-04 00:31N 59°05' E 005°18'8 8.3
2015-Mar-03 23:33N 58°58' E 005°12'1111.3
2015-Mar-03 22:33N 59°09' E 005°20'1211.7
2015-Mar-03 21:33N 59°20' E 005°19'10 0.2
2015-Mar-01 21:24N 59°30' E 005°13'911.0
2015-Mar-01 20:33N 59°21' E 005°19'9 9.1
2015-Mar-01 19:33N 59°12' E 005°21'5 5.1
2015-Mar-01 18:33N 59°07' E 005°23'5 4.6
2015-Mar-01 17:33N 59°04' E 005°17'9 9.2
2015-Mar-01 16:33N 58°56' E 005°08'29411.7
2015-Feb-28 15:33N 54°02' E 004°51'1413.4
2015-Feb-28 14:32N 53°48' E 004°52'1313.8
2015-Feb-28 13:33N 53°35' E 004°49'1414.4
2015-Feb-28 12:33N 53°22' E 004°40'2015.0
2015-Feb-28 11:12N 53°04' E 004°25'1014.8
2015-Feb-28 10:33N 52°55' E 004°18'1514.6
2015-Feb-28 09:33N 52°43' E 004°04'1514.3
2015-Feb-28 08:30N 52°32' E 003°47'7317.2
2015-Feb-28 04:16N 51°39' E 002°26'2 2.2
2015-Feb-28 03:34N 51°38' E 002°24'5 4.2
2015-Feb-28 02:29N 51°34' E 002°19'1213.1
2015-Feb-28 01:33N 51°25' E 002°07'1111.1
2015-Feb-28 00:33N 51°29' E 001°51'1212.0
2015-Feb-27 23:33N 51°26' E 001°32'1211.9
2015-Feb-27 22:33N 51°29' E 001°14'1414.3
2015-Feb-27 21:33N 51°29' E 000°51'1313.4
2015-Feb-27 20:33N 51°30' E 000°29'8 8.1
2015-Feb-27 19:33N 51°27' E 000°17'8 8.1
2015-Feb-27 18:33N 51°30' E 000°05'1 1.3
2015-Feb-27 17:29N 51°30' E 000°03'0 0.0
2015-Feb-27 16:29N 51°30' E 000°03'0 0.0
2015-Feb-27 15:29N 51°30' E 000°03'0 0.0
2015-Feb-27 13:23N 51°30' E 000°03'0 0.0
2015-Feb-27 12:23N 51°30' E 000°03'0 0.0
2015-Feb-27 11:29N 51°30' E 000°03'0 0.0
2015-Feb-27 10:29N 51°30' E 000°03'0 0.0
2015-Feb-27 09:05N 51°30' E 000°03'0 0.0
2015-Feb-27 01:29N 51°30' E 000°03'0 0.0
2015-Feb-27 00:17N 51°30' E 000°03'0 0.0
2015-Feb-26 23:29N 51°30' E 000°03'0 0.0
2015-Feb-26 14:29N 51°30' E 000°03'0 0.0
2015-Feb-26 13:29N 51°30' E 000°03'0 0.0
2015-Feb-26 12:20N 51°30' E 000°03'0 0.0
2015-Feb-26 10:11N 51°30' E 000°03'0 0.0
2015-Feb-26 08:11N 51°30' E 000°03'0 0.0
2015-Feb-26 07:23N 51°30' E 000°03'0 0.0
2015-Feb-26 06:20N 51°30' E 000°03'0 0.0
2015-Feb-26 04:23N 51°30' E 000°03'0 0.0
2015-Feb-26 02:29N 51°30' E 000°03'0 0.0
2015-Feb-26 01:29N 51°30' E 000°03'0 0.0
2015-Feb-26 00:29N 51°30' E 000°03'0 0.0
2015-Feb-25 23:29N 51°30' E 000°03'0 0.0
2015-Feb-25 22:23N 51°30' E 000°03'0 0.0
2015-Feb-25 21:23N 51°30' E 000°03'0 0.0
2015-Feb-25 17:33N 51°30' E 000°03'5 4.8
2015-Feb-25 16:33N 51°30' E 000°11'9 8.6
2015-Feb-25 15:33N 51°27' E 000°23'7 7.3
2015-Feb-25 14:33N 51°30' E 000°34'1110.8
2015-Feb-25 13:33N 51°29' E 000°51'1 0.5
2015-Feb-25 12:33N 51°30' E 000°51'0 0.2
2015-Feb-25 11:31N 51°30' E 000°51'0 0.0
2015-Feb-25 10:25N 51°30' E 000°51'0 0.0
2015-Feb-25 09:33N 51°30' E 000°51'0 0.0
2015-Feb-25 08:33N 51°30' E 000°51'0 0.0
2015-Feb-25 07:33N 51°30' E 000°51'0 0.0
2015-Feb-25 06:33N 51°30' E 000°51'0 0.1
2015-Feb-25 05:34N 51°30' E 000°51'0 0.1
2015-Feb-25 04:33N 51°30' E 000°51'0 0.0
2015-Feb-25 03:28N 51°30' E 000°51'0 0.0
2015-Feb-25 02:32N 51°30' E 000°51'0 0.0
2015-Feb-25 01:34N 51°30' E 000°51'0 0.0
2015-Feb-25 00:33N 51°30' E 000°51'0 0.2
2015-Feb-24 23:33N 51°30' E 000°51'0 0.1
2015-Feb-24 22:33N 51°30' E 000°51'0 0.0
2015-Feb-24 21:33N 51°30' E 000°51'0 0.0
2015-Feb-24 20:33N 51°30' E 000°51'0 0.0
2015-Feb-24 19:33N 51°30' E 000°51'0 0.0
2015-Feb-24 18:32N 51°30' E 000°51'0 0.0
2015-Feb-24 17:29N 51°30' E 000°51'0 0.0
2015-Feb-24 16:32N 51°30' E 000°51'0 0.2
2015-Feb-24 15:32N 51°30' E 000°51'0 0.0
2015-Feb-24 14:29N 51°30' E 000°51'0 0.0
2015-Feb-24 13:29N 51°30' E 000°51'0 0.0
2015-Feb-24 12:32N 51°30' E 000°51'0 0.1
2015-Feb-24 11:31N 51°30' E 000°51'0 0.2
2015-Feb-24 10:30N 51°30' E 000°52'0 0.0
2015-Feb-24 09:33N 51°30' E 000°52'0 0.0
2015-Feb-24 08:33N 51°30' E 000°52'0 0.0
2015-Feb-24 07:31N 51°30' E 000°52'0 0.0
2015-Feb-24 06:34N 51°30' E 000°52'0 0.0
2015-Feb-24 05:33N 51°30' E 000°52'0 0.0
2015-Feb-24 04:28N 51°30' E 000°52'0 0.2
2015-Feb-24 03:33N 51°30' E 000°51'0 0.1
2015-Feb-24 02:33N 51°30' E 000°51'0 0.0
2015-Feb-24 01:34N 51°30' E 000°51'0 0.0
2015-Feb-24 00:33N 51°30' E 000°51'0 0.1
2015-Feb-23 23:33N 51°30' E 000°51'0 0.2
2015-Feb-23 22:33N 51°30' E 000°52'0 0.0
2015-Feb-23 21:31N 51°30' E 000°52'0 0.0
2015-Feb-23 20:31N 51°30' E 000°52'0 0.0
2015-Feb-23 19:31N 51°30' E 000°52'0 0.0
2015-Feb-23 18:28N 51°30' E 000°52'0 0.0
2015-Feb-23 17:33N 51°30' E 000°52'0 0.0
2015-Feb-23 16:32N 51°30' E 000°52'0 0.2
2015-Feb-23 15:34N 51°30' E 000°51'0 0.0
2015-Feb-23 13:16N 51°30' E 000°51'0 0.0
2015-Feb-23 12:31N 51°30' E 000°51'0 0.0
2015-Feb-23 11:31N 51°30' E 000°51'0 0.2
2015-Feb-23 10:31N 51°30' E 000°51'0 0.1
2015-Feb-23 09:33N 51°30' E 000°51'0 0.0
2015-Feb-23 08:33N 51°30' E 000°51'0 0.0
2015-Feb-23 07:33N 51°30' E 000°51'0 0.0
2015-Feb-23 06:33N 51°30' E 000°51'0 0.0
2015-Feb-23 05:32N 51°30' E 000°51'0 0.0
2015-Feb-23 04:31N 51°30' E 000°51'0 0.1
2015-Feb-23 03:31N 51°30' E 000°51'0 0.1
2015-Feb-23 02:31N 51°30' E 000°51'0 0.2
2015-Feb-23 01:32N 51°30' E 000°51'4 3.9
2015-Feb-23 00:33N 51°29' E 000°57'1010.2
2015-Feb-22 23:33N 51°29' E 001°13'1010.2
2015-Feb-22 22:33N 51°29' E 001°30'4 3.8
2015-Feb-22 21:34N 51°25' E 001°31'6 6.1
2015-Feb-22 20:34N 51°29' E 001°39'1010.3
2015-Feb-22 19:34N 51°27' E 001°55'10 9.8
2015-Feb-22 18:33N 51°17' E 001°54'1414.3
2015-Feb-22 17:33N 51°06' E 001°40'  
Track history (hours):
 
Tides and Currents Weather Stations Pressure Air Temp Water Temp Dewpoint Dewpoint Depression Visibility Wind Speed Wind Dir Waves Ship Positions

Hegina

Last reported at 2015-Mar-04 03:24 UTC. Time now 2015-Mar-04 18:53 UTC.
Position N 58°48' E 005°09'.

Length 138 m; draft 6.3 m.

Type: Cargo ship. MMSI: 372427000.

Date/timePositionNaut miles runAvg speedWind from/ knotsBaromVisibWave heightAir tempDewpointWater temp
2015-Mar-04 03:24N 58°48' E 005°09'3 3.3
2015-Mar-04 02:25N 58°51' E 005°10'1112.4
2015-Mar-04 01:31N 59°02' E 005°13'4 4.3
2015-Mar-04 00:31N 59°05' E 005°18'8 8.3
2015-Mar-03 23:33N 58°58' E 005°12'1111.3
2015-Mar-03 22:33N 59°09' E 005°20'1211.7
2015-Mar-03 21:33N 59°20' E 005°19'10 0.2
2015-Mar-01 21:24N 59°30' E 005°13'911.0
2015-Mar-01 20:33N 59°21' E 005°19'9 9.1
2015-Mar-01 19:33N 59°12' E 005°21'5 5.1
2015-Mar-01 18:33N 59°07' E 005°23'5 4.6
2015-Mar-01 17:33N 59°04' E 005°17'9 9.2
2015-Mar-01 16:33N 58°56' E 005°08'29411.7
2015-Feb-28 15:33N 54°02' E 004°51'1413.4
2015-Feb-28 14:32N 53°48' E 004°52'1313.8
2015-Feb-28 13:33N 53°35' E 004°49'1414.4
2015-Feb-28 12:33N 53°22' E 004°40'2015.0
2015-Feb-28 11:12N 53°04' E 004°25'1014.8
2015-Feb-28 10:33N 52°55' E 004°18'1514.6
2015-Feb-28 09:33N 52°43' E 004°04'1514.3
2015-Feb-28 08:30N 52°32' E 003°47'7317.2
2015-Feb-28 04:16N 51°39' E 002°26'2 2.2
2015-Feb-28 03:34N 51°38' E 002°24'5 4.2
2015-Feb-28 02:29N 51°34' E 002°19'1213.1
2015-Feb-28 01:33N 51°25' E 002°07'1111.1
2015-Feb-28 00:33N 51°29' E 001°51'1212.0
2015-Feb-27 23:33N 51°26' E 001°32'1211.9
2015-Feb-27 22:33N 51°29' E 001°14'1414.3
2015-Feb-27 21:33N 51°29' E 000°51'1313.4
2015-Feb-27 20:33N 51°30' E 000°29'8 8.1
2015-Feb-27 19:33N 51°27' E 000°17'8 8.1
2015-Feb-27 18:33N 51°30' E 000°05'1 1.3
2015-Feb-27 17:29N 51°30' E 000°03'0 0.0
2015-Feb-27 16:29N 51°30' E 000°03'0 0.0
2015-Feb-27 15:29N 51°30' E 000°03'0 0.0
2015-Feb-27 13:23N 51°30' E 000°03'0 0.0
2015-Feb-27 12:23N 51°30' E 000°03'0 0.0
2015-Feb-27 11:29N 51°30' E 000°03'0 0.0
2015-Feb-27 10:29N 51°30' E 000°03'0 0.0
2015-Feb-27 09:05N 51°30' E 000°03'0 0.0
2015-Feb-27 01:29N 51°30' E 000°03'0 0.0
2015-Feb-27 00:17N 51°30' E 000°03'0 0.0
2015-Feb-26 23:29N 51°30' E 000°03'0 0.0
2015-Feb-26 14:29N 51°30' E 000°03'0 0.0
2015-Feb-26 13:29N 51°30' E 000°03'0 0.0
2015-Feb-26 12:20N 51°30' E 000°03'0 0.0
2015-Feb-26 10:11N 51°30' E 000°03'0 0.0
2015-Feb-26 08:11N 51°30' E 000°03'0 0.0
2015-Feb-26 07:23N 51°30' E 000°03'0 0.0
2015-Feb-26 06:20N 51°30' E 000°03'0 0.0
2015-Feb-26 04:23N 51°30' E 000°03'0 0.0
2015-Feb-26 02:29N 51°30' E 000°03'0 0.0
2015-Feb-26 01:29N 51°30' E 000°03'0 0.0
2015-Feb-26 00:29N 51°30' E 000°03'0 0.0
2015-Feb-25 23:29N 51°30' E 000°03'0 0.0
2015-Feb-25 22:23N 51°30' E 000°03'0 0.0
2015-Feb-25 21:23N 51°30' E 000°03'0 0.0
2015-Feb-25 17:33N 51°30' E 000°03'5 4.8
2015-Feb-25 16:33N 51°30' E 000°11'9 8.6
2015-Feb-25 15:33N 51°27' E 000°23'7 7.3
2015-Feb-25 14:33N 51°30' E 000°34'1110.8
2015-Feb-25 13:33N 51°29' E 000°51'1 0.5
2015-Feb-25 12:33N 51°30' E 000°51'0 0.2
2015-Feb-25 11:31N 51°30' E 000°51'0 0.0
2015-Feb-25 10:25N 51°30' E 000°51'0 0.0
2015-Feb-25 09:33N 51°30' E 000°51'0 0.0
2015-Feb-25 08:33N 51°30' E 000°51'0 0.0
2015-Feb-25 07:33N 51°30' E 000°51'0 0.0
2015-Feb-25 06:33N 51°30' E 000°51'0 0.1
2015-Feb-25 05:34N 51°30' E 000°51'0 0.1
2015-Feb-25 04:33N 51°30' E 000°51'0 0.0
2015-Feb-25 03:28N 51°30' E 000°51'0 0.0
2015-Feb-25 02:32N 51°30' E 000°51'0 0.0
2015-Feb-25 01:34N 51°30' E 000°51'0 0.0
2015-Feb-25 00:33N 51°30' E 000°51'0 0.2
2015-Feb-24 23:33N 51°30' E 000°51'0 0.1
2015-Feb-24 22:33N 51°30' E 000°51'0 0.0
2015-Feb-24 21:33N 51°30' E 000°51'0 0.0
2015-Feb-24 20:33N 51°30' E 000°51'0 0.0
2015-Feb-24 19:33N 51°30' E 000°51'0 0.0
2015-Feb-24 18:32N 51°30' E 000°51'0 0.0
2015-Feb-24 17:29N 51°30' E 000°51'0 0.0
2015-Feb-24 16:32N 51°30' E 000°51'0 0.2
2015-Feb-24 15:32N 51°30' E 000°51'0 0.0
2015-Feb-24 14:29N 51°30' E 000°51'0 0.0
2015-Feb-24 13:29N 51°30' E 000°51'0 0.0
2015-Feb-24 12:32N 51°30' E 000°51'0 0.1
2015-Feb-24 11:31N 51°30' E 000°51'0 0.2
2015-Feb-24 10:30N 51°30' E 000°52'0 0.0
2015-Feb-24 09:33N 51°30' E 000°52'0 0.0
2015-Feb-24 08:33N 51°30' E 000°52'0 0.0
2015-Feb-24 07:31N 51°30' E 000°52'0 0.0
2015-Feb-24 06:34N 51°30' E 000°52'0 0.0
2015-Feb-24 05:33N 51°30' E 000°52'0 0.0
2015-Feb-24 04:28N 51°30' E 000°52'0 0.2
2015-Feb-24 03:33N 51°30' E 000°51'0 0.1
2015-Feb-24 02:33N 51°30' E 000°51'0 0.0
2015-Feb-24 01:34N 51°30' E 000°51'0 0.0
2015-Feb-24 00:33N 51°30' E 000°51'0 0.1
2015-Feb-23 23:33N 51°30' E 000°51'0 0.2
2015-Feb-23 22:33N 51°30' E 000°52'0 0.0
2015-Feb-23 21:31N 51°30' E 000°52'0 0.0
2015-Feb-23 20:31N 51°30' E 000°52'0 0.0
2015-Feb-23 19:31N 51°30' E 000°52'0 0.0
2015-Feb-23 18:28N 51°30' E 000°52'0 0.0
2015-Feb-23 17:33N 51°30' E 000°52'0 0.0
2015-Feb-23 16:32N 51°30' E 000°52'0 0.2
2015-Feb-23 15:34N 51°30' E 000°51'0 0.0
2015-Feb-23 13:16N 51°30' E 000°51'0 0.0
2015-Feb-23 12:31N 51°30' E 000°51'0 0.0
2015-Feb-23 11:31N 51°30' E 000°51'0 0.2
2015-Feb-23 10:31N 51°30' E 000°51'0 0.1
2015-Feb-23 09:33N 51°30' E 000°51'0 0.0
2015-Feb-23 08:33N 51°30' E 000°51'0 0.0
2015-Feb-23 07:33N 51°30' E 000°51'0 0.0
2015-Feb-23 06:33N 51°30' E 000°51'0 0.0
2015-Feb-23 05:32N 51°30' E 000°51'0 0.0
2015-Feb-23 04:31N 51°30' E 000°51'0 0.1
2015-Feb-23 03:31N 51°30' E 000°51'0 0.1
2015-Feb-23 02:31N 51°30' E 000°51'0 0.2
2015-Feb-23 01:32N 51°30' E 000°51'4 3.9
2015-Feb-23 00:33N 51°29' E 000°57'1010.2
2015-Feb-22 23:33N 51°29' E 001°13'1010.2
2015-Feb-22 22:33N 51°29' E 001°30'4 3.8
2015-Feb-22 21:34N 51°25' E 001°31'6 6.1
2015-Feb-22 20:34N 51°29' E 001°39'1010.3
2015-Feb-22 19:34N 51°27' E 001°55'10 9.8
2015-Feb-22 18:33N 51°17' E 001°54'1414.3
2015-Feb-22 17:33N 51°06' E 001°40'  

Dump ship's entire track history